sensor_id;sensor_type;location;lat;lon;timestamp;P1;durP1;ratioP1;P2;durP2;ratioP2
80322;SDS011;69636;52.372;13.610;2023-09-08T00:01:35;11.30;;;8.70;;
80322;SDS011;69636;52.372;13.610;2023-09-08T00:04:04;9.32;;;8.27;;
80322;SDS011;69636;52.372;13.610;2023-09-08T00:06:32;10.90;;;8.95;;
80322;SDS011;69636;52.372;13.610;2023-09-08T00:09:23;10.50;;;7.63;;
80322;SDS011;69636;52.372;13.610;2023-09-08T00:12:14;11.70;;;7.93;;
80322;SDS011;69636;52.372;13.610;2023-09-08T00:14:44;11.10;;;7.32;;
80322;SDS011;69636;52.372;13.610;2023-09-08T00:17:12;9.55;;;8.18;;
80322;SDS011;69636;52.372;13.610;2023-09-08T00:19:40;10.95;;;9.85;;
80322;SDS011;69636;52.372;13.610;2023-09-08T00:22:08;11.40;;;8.10;;
80322;SDS011;69636;52.372;13.610;2023-09-08T00:24:35;13.02;;;9.13;;
80322;SDS011;69636;52.372;13.610;2023-09-08T00:27:02;10.40;;;7.93;;
80322;SDS011;69636;52.372;13.610;2023-09-08T00:29:30;9.70;;;8.02;;
80322;SDS011;69636;52.372;13.610;2023-09-08T00:31:57;10.20;;;7.85;;
80322;SDS011;69636;52.372;13.610;2023-09-08T00:34:24;11.50;;;7.95;;
80322;SDS011;69636;52.372;13.610;2023-09-08T00:36:53;9.52;;;7.07;;
80322;SDS011;69636;52.372;13.610;2023-09-08T00:39:20;11.35;;;8.55;;
80322;SDS011;69636;52.372;13.610;2023-09-08T00:41:48;10.80;;;9.68;;
80322;SDS011;69636;52.372;13.610;2023-09-08T00:44:39;9.98;;;8.15;;
80322;SDS011;69636;52.372;13.610;2023-09-08T00:47:06;12.02;;;8.68;;
80322;SDS011;69636;52.372;13.610;2023-09-08T00:49:34;11.77;;;9.00;;
80322;SDS011;69636;52.372;13.610;2023-09-08T00:52:03;11.45;;;8.93;;
80322;SDS011;69636;52.372;13.610;2023-09-08T00:54:30;11.23;;;9.02;;
80322;SDS011;69636;52.372;13.610;2023-09-08T00:56:58;10.45;;;8.00;;
80322;SDS011;69636;52.372;13.610;2023-09-08T00:59:29;11.02;;;8.65;;
80322;SDS011;69636;52.372;13.610;2023-09-08T01:01:58;9.95;;;8.40;;
80322;SDS011;69636;52.372;13.610;2023-09-08T01:04:26;13.88;;;9.23;;
80322;SDS011;69636;52.372;13.610;2023-09-08T01:06:53;10.90;;;9.18;;
80322;SDS011;69636;52.372;13.610;2023-09-08T01:09:23;10.85;;;9.20;;
80322;SDS011;69636;52.372;13.610;2023-09-08T01:11:51;11.63;;;8.93;;
80322;SDS011;69636;52.372;13.610;2023-09-08T01:14:19;10.73;;;9.52;;
80322;SDS011;69636;52.372;13.610;2023-09-08T01:17:10;10.93;;;9.10;;
80322;SDS011;69636;52.372;13.610;2023-09-08T01:20:04;12.10;;;9.07;;
80322;SDS011;69636;52.372;13.610;2023-09-08T01:22:51;9.75;;;8.68;;
80322;SDS011;69636;52.372;13.610;2023-09-08T01:25:31;12.27;;;9.70;;
80322;SDS011;69636;52.372;13.610;2023-09-08T01:28:02;11.07;;;8.77;;
80322;SDS011;69636;52.372;13.610;2023-09-08T01:30:31;10.65;;;8.73;;
80322;SDS011;69636;52.372;13.610;2023-09-08T01:32:59;10.88;;;9.20;;
80322;SDS011;69636;52.372;13.610;2023-09-08T01:35:27;11.80;;;8.57;;
80322;SDS011;69636;52.372;13.610;2023-09-08T01:37:54;12.07;;;9.20;;
80322;SDS011;69636;52.372;13.610;2023-09-08T01:40:22;10.48;;;8.60;;
80322;SDS011;69636;52.372;13.610;2023-09-08T01:42:51;10.00;;;8.60;;
80322;SDS011;69636;52.372;13.610;2023-09-08T01:45:18;11.27;;;10.15;;
80322;SDS011;69636;52.372;13.610;2023-09-08T01:47:46;11.75;;;9.32;;
80322;SDS011;69636;52.372;13.610;2023-09-08T01:50:37;11.43;;;9.00;;
80322;SDS011;69636;52.372;13.610;2023-09-08T01:53:04;11.55;;;8.73;;
80322;SDS011;69636;52.372;13.610;2023-09-08T01:55:31;10.90;;;8.82;;
80322;SDS011;69636;52.372;13.610;2023-09-08T01:58:00;11.15;;;8.32;;
80322;SDS011;69636;52.372;13.610;2023-09-08T02:00:27;10.07;;;8.93;;
80322;SDS011;69636;52.372;13.610;2023-09-08T02:02:55;11.77;;;9.32;;
80322;SDS011;69636;52.372;13.610;2023-09-08T02:05:22;11.73;;;9.50;;
80322;SDS011;69636;52.372;13.610;2023-09-08T02:07:50;12.10;;;9.20;;
80322;SDS011;69636;52.372;13.610;2023-09-08T02:10:17;11.75;;;9.82;;
80322;SDS011;69636;52.372;13.610;2023-09-08T02:12:44;12.23;;;9.20;;
80322;SDS011;69636;52.372;13.610;2023-09-08T02:15:13;11.07;;;8.73;;
80322;SDS011;69636;52.372;13.610;2023-09-08T02:17:40;13.40;;;9.57;;
80322;SDS011;69636;52.372;13.610;2023-09-08T02:20:08;10.60;;;9.02;;
80322;SDS011;69636;52.372;13.610;2023-09-08T02:22:36;11.75;;;9.43;;
80322;SDS011;69636;52.372;13.610;2023-09-08T02:25:27;11.25;;;10.05;;
80322;SDS011;69636;52.372;13.610;2023-09-08T02:27:54;11.13;;;9.88;;
80322;SDS011;69636;52.372;13.610;2023-09-08T02:30:23;10.00;;;8.40;;
80322;SDS011;69636;52.372;13.610;2023-09-08T02:32:50;11.25;;;8.65;;
80322;SDS011;69636;52.372;13.610;2023-09-08T02:35:18;10.65;;;8.65;;
80322;SDS011;69636;52.372;13.610;2023-09-08T02:37:45;10.35;;;8.70;;
80322;SDS011;69636;52.372;13.610;2023-09-08T02:40:12;13.48;;;9.32;;
80322;SDS011;69636;52.372;13.610;2023-09-08T02:42:39;11.27;;;9.05;;
80322;SDS011;69636;52.372;13.610;2023-09-08T02:45:07;11.07;;;8.70;;
80322;SDS011;69636;52.372;13.610;2023-09-08T02:47:36;10.45;;;8.98;;
80322;SDS011;69636;52.372;13.610;2023-09-08T02:50:04;11.30;;;9.65;;
80322;SDS011;69636;52.372;13.610;2023-09-08T02:52:31;11.52;;;8.88;;
80322;SDS011;69636;52.372;13.610;2023-09-08T02:54:59;11.98;;;9.95;;
80322;SDS011;69636;52.372;13.610;2023-09-08T02:57:26;11.88;;;10.43;;
80322;SDS011;69636;52.372;13.610;2023-09-08T03:00:18;13.00;;;9.95;;
80322;SDS011;69636;52.372;13.610;2023-09-08T03:02:47;12.18;;;8.98;;
80322;SDS011;69636;52.372;13.610;2023-09-08T03:05:14;12.00;;;9.68;;
80322;SDS011;69636;52.372;13.610;2023-09-08T03:07:42;11.60;;;8.68;;
80322;SDS011;69636;52.372;13.610;2023-09-08T03:10:09;10.73;;;9.40;;
80322;SDS011;69636;52.372;13.610;2023-09-08T03:12:37;10.73;;;9.20;;
80322;SDS011;69636;52.372;13.610;2023-09-08T03:15:05;11.50;;;9.30;;
80322;SDS011;69636;52.372;13.610;2023-09-08T03:17:33;12.07;;;9.90;;
80322;SDS011;69636;52.372;13.610;2023-09-08T03:20:02;12.38;;;10.50;;
80322;SDS011;69636;52.372;13.610;2023-09-08T03:22:29;12.75;;;10.00;;
80322;SDS011;69636;52.372;13.610;2023-09-08T03:24:57;12.48;;;10.93;;
80322;SDS011;69636;52.372;13.610;2023-09-08T03:27:48;12.38;;;9.23;;
80322;SDS011;69636;52.372;13.610;2023-09-08T03:30:39;11.15;;;9.50;;
80322;SDS011;69636;52.372;13.610;2023-09-08T03:33:09;13.25;;;9.85;;
80322;SDS011;69636;52.372;13.610;2023-09-08T03:35:38;12.93;;;11.13;;
80322;SDS011;69636;52.372;13.610;2023-09-08T03:38:05;12.07;;;10.77;;
80322;SDS011;69636;52.372;13.610;2023-09-08T03:40:32;14.82;;;10.68;;
80322;SDS011;69636;52.372;13.610;2023-09-08T03:43:00;12.07;;;10.43;;
80322;SDS011;69636;52.372;13.610;2023-09-08T03:45:27;12.85;;;9.57;;
80322;SDS011;69636;52.372;13.610;2023-09-08T03:47:54;12.85;;;9.48;;
80322;SDS011;69636;52.372;13.610;2023-09-08T03:50:22;13.23;;;10.30;;
80322;SDS011;69636;52.372;13.610;2023-09-08T03:52:51;12.65;;;11.05;;
80322;SDS011;69636;52.372;13.610;2023-09-08T03:55:18;11.98;;;10.38;;
80322;SDS011;69636;52.372;13.610;2023-09-08T03:57:46;16.27;;;11.90;;
80322;SDS011;69636;52.372;13.610;2023-09-08T04:00:13;14.63;;;10.98;;
80322;SDS011;69636;52.372;13.610;2023-09-08T04:03:05;12.57;;;11.15;;
80322;SDS011;69636;52.372;13.610;2023-09-08T04:05:32;12.93;;;10.73;;
80322;SDS011;69636;52.372;13.610;2023-09-08T04:08:01;16.02;;;10.77;;
80322;SDS011;69636;52.372;13.610;2023-09-08T04:10:28;15.30;;;11.57;;
80322;SDS011;69636;52.372;13.610;2023-09-08T04:12:55;14.43;;;12.25;;
80322;SDS011;69636;52.372;13.610;2023-09-08T04:15:23;11.68;;;9.93;;
80322;SDS011;69636;52.372;13.610;2023-09-08T04:17:50;12.85;;;11.55;;
80322;SDS011;69636;52.372;13.610;2023-09-08T04:20:17;12.48;;;10.82;;
80322;SDS011;69636;52.372;13.610;2023-09-08T04:22:45;13.32;;;10.43;;
80322;SDS011;69636;52.372;13.610;2023-09-08T04:25:14;12.43;;;10.90;;
80322;SDS011;69636;52.372;13.610;2023-09-08T04:27:41;12.05;;;10.68;;
80322;SDS011;69636;52.372;13.610;2023-09-08T04:30:09;13.52;;;11.55;;
80322;SDS011;69636;52.372;13.610;2023-09-08T04:32:37;13.88;;;12.27;;
80322;SDS011;69636;52.372;13.610;2023-09-08T04:35:05;12.57;;;10.25;;
80322;SDS011;69636;52.372;13.610;2023-09-08T04:37:57;13.07;;;10.95;;
80322;SDS011;69636;52.372;13.610;2023-09-08T04:40:49;14.75;;;12.15;;
80322;SDS011;69636;52.372;13.610;2023-09-08T04:43:20;14.35;;;11.10;;
80322;SDS011;69636;52.372;13.610;2023-09-08T04:45:47;14.65;;;12.98;;
80322;SDS011;69636;52.372;13.610;2023-09-08T04:48:14;14.20;;;10.80;;
80322;SDS011;69636;52.372;13.610;2023-09-08T04:50:42;14.18;;;12.68;;
80322;SDS011;69636;52.372;13.610;2023-09-08T04:53:09;14.70;;;12.20;;
80322;SDS011;69636;52.372;13.610;2023-09-08T04:55:36;19.05;;;14.77;;
80322;SDS011;69636;52.372;13.610;2023-09-08T04:58:05;15.18;;;12.10;;
80322;SDS011;69636;52.372;13.610;2023-09-08T05:00:32;15.88;;;13.18;;
80322;SDS011;69636;52.372;13.610;2023-09-08T05:02:59;15.02;;;13.38;;
80322;SDS011;69636;52.372;13.610;2023-09-08T05:05:27;16.27;;;11.52;;
80322;SDS011;69636;52.372;13.610;2023-09-08T05:07:55;15.38;;;12.98;;
80322;SDS011;69636;52.372;13.610;2023-09-08T05:10:22;15.65;;;13.15;;
80322;SDS011;69636;52.372;13.610;2023-09-08T05:15:56;15.80;;;12.93;;
80322;SDS011;69636;52.372;13.610;2023-09-08T05:18:24;14.95;;;13.55;;
80322;SDS011;69636;52.372;13.610;2023-09-08T05:20:51;18.13;;;13.35;;
80322;SDS011;69636;52.372;13.610;2023-09-08T05:23:19;13.90;;;12.25;;
80322;SDS011;69636;52.372;13.610;2023-09-08T05:25:46;14.98;;;12.25;;
80322;SDS011;69636;52.372;13.610;2023-09-08T05:28:13;13.50;;;11.95;;
80322;SDS011;69636;52.372;13.610;2023-09-08T05:30:42;14.52;;;11.95;;
80322;SDS011;69636;52.372;13.610;2023-09-08T05:33:09;15.50;;;13.15;;
80322;SDS011;69636;52.372;13.610;2023-09-08T05:35:37;14.20;;;11.40;;
80322;SDS011;69636;52.372;13.610;2023-09-08T05:38:04;14.52;;;11.23;;
80322;SDS011;69636;52.372;13.610;2023-09-08T05:40:56;14.77;;;12.05;;
80322;SDS011;69636;52.372;13.610;2023-09-08T05:43:47;14.07;;;11.13;;
80322;SDS011;69636;52.372;13.610;2023-09-08T05:46:19;13.57;;;11.68;;
80322;SDS011;69636;52.372;13.610;2023-09-08T05:48:47;13.98;;;11.05;;
80322;SDS011;69636;52.372;13.610;2023-09-08T05:51:14;14.02;;;11.15;;
80322;SDS011;69636;52.372;13.610;2023-09-08T05:56:09;12.65;;;9.98;;
80322;SDS011;69636;52.372;13.610;2023-09-08T05:58:37;13.55;;;11.02;;
80322;SDS011;69636;52.372;13.610;2023-09-08T06:01:04;15.32;;;12.57;;
80322;SDS011;69636;52.372;13.610;2023-09-08T06:03:34;13.20;;;11.30;;
80322;SDS011;69636;52.372;13.610;2023-09-08T06:06:02;14.07;;;11.27;;
80322;SDS011;69636;52.372;13.610;2023-09-08T06:08:29;14.23;;;10.75;;
80322;SDS011;69636;52.372;13.610;2023-09-08T06:10:56;13.55;;;11.27;;
80322;SDS011;69636;52.372;13.610;2023-09-08T06:13:24;13.30;;;11.05;;
80322;SDS011;69636;52.372;13.610;2023-09-08T06:16:15;12.77;;;10.95;;
80322;SDS011;69636;52.372;13.610;2023-09-08T06:18:44;13.00;;;11.60;;
80322;SDS011;69636;52.372;13.610;2023-09-08T06:21:11;12.73;;;10.27;;
80322;SDS011;69636;52.372;13.610;2023-09-08T06:23:38;13.32;;;11.00;;
80322;SDS011;69636;52.372;13.610;2023-09-08T06:26:06;11.98;;;10.18;;
80322;SDS011;69636;52.372;13.610;2023-09-08T06:28:33;13.45;;;10.52;;
80322;SDS011;69636;52.372;13.610;2023-09-08T06:33:28;12.63;;;10.32;;
80322;SDS011;69636;52.372;13.610;2023-09-08T06:35:57;11.75;;;9.15;;
80322;SDS011;69636;52.372;13.610;2023-09-08T06:38:24;13.65;;;9.82;;
80322;SDS011;69636;52.372;13.610;2023-09-08T06:40:52;12.60;;;9.93;;
80322;SDS011;69636;52.372;13.610;2023-09-08T06:43:19;11.15;;;9.02;;
80322;SDS011;69636;52.372;13.610;2023-09-08T06:45:47;14.32;;;12.93;;
80322;SDS011;69636;52.372;13.610;2023-09-08T06:48:14;11.55;;;9.40;;
80322;SDS011;69636;52.372;13.610;2023-09-08T06:51:07;12.27;;;8.88;;
80322;SDS011;69636;52.372;13.610;2023-09-08T06:53:59;10.90;;;9.68;;
80322;SDS011;69636;52.372;13.610;2023-09-08T06:56:29;10.60;;;8.23;;
80322;SDS011;69636;52.372;13.610;2023-09-08T06:58:56;12.50;;;9.95;;
80322;SDS011;69636;52.372;13.610;2023-09-08T07:01:24;13.60;;;9.52;;
80322;SDS011;69636;52.372;13.610;2023-09-08T07:06:20;11.30;;;8.75;;
80322;SDS011;69636;52.372;13.610;2023-09-08T07:08:48;10.52;;;7.63;;
80322;SDS011;69636;52.372;13.610;2023-09-08T07:11:15;11.85;;;8.77;;
80322;SDS011;69636;52.372;13.610;2023-09-08T07:13:43;9.15;;;8.25;;
80322;SDS011;69636;52.372;13.610;2023-09-08T07:16:11;9.38;;;7.38;;
80322;SDS011;69636;52.372;13.610;2023-09-08T07:18:38;9.55;;;8.13;;
80322;SDS011;69636;52.372;13.610;2023-09-08T07:21:06;9.98;;;7.72;;
80322;SDS011;69636;52.372;13.610;2023-09-08T07:30:26;9.77;;;7.55;;
80322;SDS011;69636;52.372;13.610;2023-09-08T07:32:54;9.65;;;8.65;;
80322;SDS011;69636;52.372;13.610;2023-09-08T07:35:21;10.25;;;8.50;;
80322;SDS011;69636;52.372;13.610;2023-09-08T07:37:48;10.85;;;8.43;;
80322;SDS011;69636;52.372;13.610;2023-09-08T07:42:43;10.07;;;7.32;;
80322;SDS011;69636;52.372;13.610;2023-09-08T07:45:10;9.52;;;7.47;;
80322;SDS011;69636;52.372;13.610;2023-09-08T07:47:39;9.60;;;7.65;;
80322;SDS011;69636;52.372;13.610;2023-09-08T07:50:16;10.10;;;7.28;;
80322;SDS011;69636;52.372;13.610;2023-09-08T07:52:45;10.40;;;7.78;;
80322;SDS011;69636;52.372;13.610;2023-09-08T07:55:12;9.45;;;7.47;;
80322;SDS011;69636;52.372;13.610;2023-09-08T07:57:41;10.23;;;8.07;;
80322;SDS011;69636;52.372;13.610;2023-09-08T08:00:32;10.05;;;7.50;;
80322;SDS011;69636;52.372;13.610;2023-09-08T08:03:24;9.32;;;7.45;;
80322;SDS011;69636;52.372;13.610;2023-09-08T08:05:56;9.75;;;8.32;;
80322;SDS011;69636;52.372;13.610;2023-09-08T08:08:23;10.30;;;7.45;;
80322;SDS011;69636;52.372;13.610;2023-09-08T08:10:51;10.38;;;7.78;;
80322;SDS011;69636;52.372;13.610;2023-09-08T08:13:18;10.35;;;7.60;;
80322;SDS011;69636;52.372;13.610;2023-09-08T08:15:46;9.90;;;7.10;;
80322;SDS011;69636;52.372;13.610;2023-09-08T08:18:13;8.35;;;6.65;;
80322;SDS011;69636;52.372;13.610;2023-09-08T08:20:42;10.38;;;7.20;;
80322;SDS011;69636;52.372;13.610;2023-09-08T08:23:10;13.55;;;7.40;;
80322;SDS011;69636;52.372;13.610;2023-09-08T08:25:37;8.93;;;6.95;;
80322;SDS011;69636;52.372;13.610;2023-09-08T08:28:05;9.13;;;6.72;;
80322;SDS011;69636;52.372;13.610;2023-09-08T08:30:32;10.35;;;8.05;;
80322;SDS011;69636;52.372;13.610;2023-09-08T08:33:00;11.18;;;6.50;;
80322;SDS011;69636;52.372;13.610;2023-09-08T08:35:52;11.02;;;6.15;;
80322;SDS011;69636;52.372;13.610;2023-09-08T08:38:20;8.60;;;7.22;;
80322;SDS011;69636;52.372;13.610;2023-09-08T08:40:47;8.38;;;7.13;;
80322;SDS011;69636;52.372;13.610;2023-09-08T08:43:14;7.70;;;6.22;;
80322;SDS011;69636;52.372;13.610;2023-09-08T08:45:42;6.88;;;5.75;;
80322;SDS011;69636;52.372;13.610;2023-09-08T08:48:11;7.90;;;5.93;;
80322;SDS011;69636;52.372;13.610;2023-09-08T08:50:40;9.23;;;6.18;;
80322;SDS011;69636;52.372;13.610;2023-09-08T08:53:10;7.65;;;5.07;;
80322;SDS011;69636;52.372;13.610;2023-09-08T08:55:38;7.40;;;6.05;;
80322;SDS011;69636;52.372;13.610;2023-09-08T08:58:07;7.70;;;5.57;;
80322;SDS011;69636;52.372;13.610;2023-09-08T09:00:35;7.60;;;6.07;;
80322;SDS011;69636;52.372;13.610;2023-09-08T09:03:03;7.22;;;5.55;;
80322;SDS011;69636;52.372;13.610;2023-09-08T09:05:41;7.32;;;5.35;;
80322;SDS011;69636;52.372;13.610;2023-09-08T09:08:35;7.10;;;5.40;;
80322;SDS011;69636;52.372;13.610;2023-09-08T09:11:30;7.40;;;5.40;;
80322;SDS011;69636;52.372;13.610;2023-09-08T09:14:00;7.20;;;5.07;;
80322;SDS011;69636;52.372;13.610;2023-09-08T09:16:28;7.10;;;5.32;;
80322;SDS011;69636;52.372;13.610;2023-09-08T09:18:55;8.52;;;5.13;;
80322;SDS011;69636;52.372;13.610;2023-09-08T09:21:24;7.57;;;5.15;;
80322;SDS011;69636;52.372;13.610;2023-09-08T09:23:53;7.68;;;4.72;;
80322;SDS011;69636;52.372;13.610;2023-09-08T09:26:23;7.70;;;4.72;;
80322;SDS011;69636;52.372;13.610;2023-09-08T09:28:51;7.13;;;4.85;;
80322;SDS011;69636;52.372;13.610;2023-09-08T09:31:18;6.10;;;4.75;;
80322;SDS011;69636;52.372;13.610;2023-09-08T09:36:19;7.13;;;4.50;;
80322;SDS011;69636;52.372;13.610;2023-09-08T09:38:47;7.20;;;4.95;;
80322;SDS011;69636;52.372;13.610;2023-09-08T09:41:19;9.50;;;5.95;;
80322;SDS011;69636;52.372;13.610;2023-09-08T09:43:46;5.93;;;4.90;;
80322;SDS011;69636;52.372;13.610;2023-09-08T09:46:14;7.43;;;4.70;;
80322;SDS011;69636;52.372;13.610;2023-09-08T09:48:42;7.43;;;5.63;;
80322;SDS011;69636;52.372;13.610;2023-09-08T09:51:16;6.78;;;5.05;;
80322;SDS011;69636;52.372;13.610;2023-09-08T09:53:43;6.75;;;5.30;;
80322;SDS011;69636;52.372;13.610;2023-09-08T09:56:11;6.80;;;4.90;;
80322;SDS011;69636;52.372;13.610;2023-09-08T09:58:40;6.97;;;4.95;;
80322;SDS011;69636;52.372;13.610;2023-09-08T10:01:09;6.20;;;4.93;;
80322;SDS011;69636;52.372;13.610;2023-09-08T10:03:38;7.28;;;5.57;;
80322;SDS011;69636;52.372;13.610;2023-09-08T10:06:06;8.57;;;5.40;;
80322;SDS011;69636;52.372;13.610;2023-09-08T10:08:34;7.25;;;5.13;;
80322;SDS011;69636;52.372;13.610;2023-09-08T10:11:03;6.97;;;5.53;;
80322;SDS011;69636;52.372;13.610;2023-09-08T10:13:33;7.63;;;5.28;;
80322;SDS011;69636;52.372;13.610;2023-09-08T10:16:34;7.15;;;5.05;;
80322;SDS011;69636;52.372;13.610;2023-09-08T10:19:26;7.15;;;5.25;;
80322;SDS011;69636;52.372;13.610;2023-09-08T10:21:59;8.32;;;5.45;;
80322;SDS011;69636;52.372;13.610;2023-09-08T10:24:27;8.80;;;5.22;;
80322;SDS011;69636;52.372;13.610;2023-09-08T10:26:58;9.02;;;5.55;;
80322;SDS011;69636;52.372;13.610;2023-09-08T10:29:32;5.88;;;4.32;;
80322;SDS011;69636;52.372;13.610;2023-09-08T10:31:59;7.65;;;5.20;;
80322;SDS011;69636;52.372;13.610;2023-09-08T10:34:28;6.35;;;4.68;;
80322;SDS011;69636;52.372;13.610;2023-09-08T10:36:57;9.02;;;4.85;;
80322;SDS011;69636;52.372;13.610;2023-09-08T10:39:29;7.95;;;4.93;;
80322;SDS011;69636;52.372;13.610;2023-09-08T10:42:19;5.38;;;4.43;;
80322;SDS011;69636;52.372;13.610;2023-09-08T10:45:01;8.43;;;4.72;;
80322;SDS011;69636;52.372;13.610;2023-09-08T10:47:33;6.38;;;4.78;;
80322;SDS011;69636;52.372;13.610;2023-09-08T10:50:09;6.50;;;4.22;;
80322;SDS011;69636;52.372;13.610;2023-09-08T10:53:07;7.63;;;4.82;;
80322;SDS011;69636;52.372;13.610;2023-09-08T10:55:39;6.30;;;4.53;;
80322;SDS011;69636;52.372;13.610;2023-09-08T10:58:08;6.30;;;4.22;;
80322;SDS011;69636;52.372;13.610;2023-09-08T11:00:44;7.65;;;4.50;;
80322;SDS011;69636;52.372;13.610;2023-09-08T11:03:13;6.25;;;4.40;;
80322;SDS011;69636;52.372;13.610;2023-09-08T11:05:43;7.57;;;4.60;;
80322;SDS011;69636;52.372;13.610;2023-09-08T11:08:11;6.20;;;4.13;;
80322;SDS011;69636;52.372;13.610;2023-09-08T11:11:03;5.75;;;4.72;;
80322;SDS011;69636;52.372;13.610;2023-09-08T11:13:31;6.28;;;4.60;;
80322;SDS011;69636;52.372;13.610;2023-09-08T11:16:01;6.05;;;4.05;;
80322;SDS011;69636;52.372;13.610;2023-09-08T11:18:28;6.50;;;4.00;;
80322;SDS011;69636;52.372;13.610;2023-09-08T11:20:56;5.53;;;4.10;;
80322;SDS011;69636;52.372;13.610;2023-09-08T11:23:49;5.43;;;4.03;;
80322;SDS011;69636;52.372;13.610;2023-09-08T11:26:41;6.03;;;4.40;;
80322;SDS011;69636;52.372;13.610;2023-09-08T11:29:12;6.18;;;4.30;;
80322;SDS011;69636;52.372;13.610;2023-09-08T11:31:41;5.82;;;4.03;;
80322;SDS011;69636;52.372;13.610;2023-09-08T11:34:11;6.00;;;4.07;;
80322;SDS011;69636;52.372;13.610;2023-09-08T11:36:38;6.20;;;4.18;;
80322;SDS011;69636;52.372;13.610;2023-09-08T11:39:05;6.93;;;4.35;;
80322;SDS011;69636;52.372;13.610;2023-09-08T11:41:33;5.55;;;3.70;;
80322;SDS011;69636;52.372;13.610;2023-09-08T11:44:01;6.28;;;4.20;;
80322;SDS011;69636;52.372;13.610;2023-09-08T11:46:28;5.35;;;4.00;;
80322;SDS011;69636;52.372;13.610;2023-09-08T11:48:57;5.75;;;3.95;;
80322;SDS011;69636;52.372;13.610;2023-09-08T11:51:25;5.75;;;4.15;;
80322;SDS011;69636;52.372;13.610;2023-09-08T11:53:52;4.68;;;3.78;;
80322;SDS011;69636;52.372;13.610;2023-09-08T11:56:21;5.75;;;4.00;;
80322;SDS011;69636;52.372;13.610;2023-09-08T11:59:13;5.57;;;4.07;;
80322;SDS011;69636;52.372;13.610;2023-09-08T12:01:40;5.00;;;3.63;;
80322;SDS011;69636;52.372;13.610;2023-09-08T12:04:13;5.25;;;3.55;;
80322;SDS011;69636;52.372;13.610;2023-09-08T12:06:44;5.15;;;3.65;;
80322;SDS011;69636;52.372;13.610;2023-09-08T12:09:11;5.03;;;3.70;;
80322;SDS011;69636;52.372;13.610;2023-09-08T12:11:39;5.55;;;3.53;;
80322;SDS011;69636;52.372;13.610;2023-09-08T12:14:06;6.22;;;4.43;;
80322;SDS011;69636;52.372;13.610;2023-09-08T12:16:35;5.22;;;3.90;;
80322;SDS011;69636;52.372;13.610;2023-09-08T12:19:02;6.15;;;3.67;;
80322;SDS011;69636;52.372;13.610;2023-09-08T12:21:31;5.68;;;3.72;;
80322;SDS011;69636;52.372;13.610;2023-09-08T12:23:59;5.95;;;4.00;;
80322;SDS011;69636;52.372;13.610;2023-09-08T12:26:26;5.20;;;3.75;;
80322;SDS011;69636;52.372;13.610;2023-09-08T12:28:54;5.35;;;4.03;;
80322;SDS011;69636;52.372;13.610;2023-09-08T12:31:45;4.88;;;3.88;;
80322;SDS011;69636;52.372;13.610;2023-09-08T12:34:36;6.32;;;3.85;;
80322;SDS011;69636;52.372;13.610;2023-09-08T12:37:07;6.22;;;3.72;;
80322;SDS011;69636;52.372;13.610;2023-09-08T12:39:36;5.00;;;3.80;;
80322;SDS011;69636;52.372;13.610;2023-09-08T12:42:04;5.88;;;3.90;;
80322;SDS011;69636;52.372;13.610;2023-09-08T12:44:32;5.10;;;3.50;;
80322;SDS011;69636;52.372;13.610;2023-09-08T12:46:59;7.88;;;3.72;;
80322;SDS011;69636;52.372;13.610;2023-09-08T12:49:28;4.70;;;3.60;;
80322;SDS011;69636;52.372;13.610;2023-09-08T12:51:55;5.03;;;3.65;;
80322;SDS011;69636;52.372;13.610;2023-09-08T12:54:24;4.80;;;3.58;;
80322;SDS011;69636;52.372;13.610;2023-09-08T12:56:51;5.88;;;3.72;;
80322;SDS011;69636;52.372;13.610;2023-09-08T12:59:19;6.15;;;3.72;;
80322;SDS011;69636;52.372;13.610;2023-09-08T13:01:46;6.47;;;3.90;;
80322;SDS011;69636;52.372;13.610;2023-09-08T13:04:13;5.65;;;3.63;;
80322;SDS011;69636;52.372;13.610;2023-09-08T13:09:33;4.18;;;3.10;;
80322;SDS011;69636;52.372;13.610;2023-09-08T13:12:00;4.65;;;3.38;;
80322;SDS011;69636;52.372;13.610;2023-09-08T13:14:28;4.80;;;3.42;;
80322;SDS011;69636;52.372;13.610;2023-09-08T13:16:55;5.13;;;3.50;;
80322;SDS011;69636;52.372;13.610;2023-09-08T13:19:22;5.35;;;3.58;;
80322;SDS011;69636;52.372;13.610;2023-09-08T13:21:50;5.65;;;3.70;;
80322;SDS011;69636;52.372;13.610;2023-09-08T13:24:17;5.53;;;3.75;;
80322;SDS011;69636;52.372;13.610;2023-09-08T13:26:46;6.38;;;3.78;;
80322;SDS011;69636;52.372;13.610;2023-09-08T13:29:13;5.65;;;3.70;;
80322;SDS011;69636;52.372;13.610;2023-09-08T13:31:40;5.45;;;3.08;;
80322;SDS011;69636;52.372;13.610;2023-09-08T13:34:08;5.45;;;3.72;;
80322;SDS011;69636;52.372;13.610;2023-09-08T13:36:35;5.22;;;3.55;;
80322;SDS011;69636;52.372;13.610;2023-09-08T13:39:03;5.50;;;3.50;;
80322;SDS011;69636;52.372;13.610;2023-09-08T13:41:56;4.50;;;3.10;;
80322;SDS011;69636;52.372;13.610;2023-09-08T13:44:50;5.50;;;3.78;;
80322;SDS011;69636;52.372;13.610;2023-09-08T13:47:21;4.60;;;3.58;;
80322;SDS011;69636;52.372;13.610;2023-09-08T13:49:49;5.00;;;3.40;;
80322;SDS011;69636;52.372;13.610;2023-09-08T13:52:17;5.55;;;3.88;;
80322;SDS011;69636;52.372;13.610;2023-09-08T13:54:45;6.15;;;3.90;;
80322;SDS011;69636;52.372;13.610;2023-09-08T13:57:16;5.13;;;3.67;;
80322;SDS011;69636;52.372;13.610;2023-09-08T13:59:47;5.43;;;3.67;;
80322;SDS011;69636;52.372;13.610;2023-09-08T14:02:15;6.00;;;4.07;;
80322;SDS011;69636;52.372;13.610;2023-09-08T14:05:03;6.22;;;3.75;;
80322;SDS011;69636;52.372;13.610;2023-09-08T14:07:37;6.22;;;3.63;;
80322;SDS011;69636;52.372;13.610;2023-09-08T14:10:12;5.25;;;4.00;;
80322;SDS011;69636;52.372;13.610;2023-09-08T14:12:56;6.28;;;4.30;;
80322;SDS011;69636;52.372;13.610;2023-09-08T14:15:23;6.25;;;4.20;;
80322;SDS011;69636;52.372;13.610;2023-09-08T14:20:42;6.90;;;3.60;;
80322;SDS011;69636;52.372;13.610;2023-09-08T14:23:09;5.07;;;3.80;;
80322;SDS011;69636;52.372;13.610;2023-09-08T14:25:37;5.80;;;4.18;;
80322;SDS011;69636;52.372;13.610;2023-09-08T14:28:06;5.70;;;3.67;;
80322;SDS011;69636;52.372;13.610;2023-09-08T14:30:33;4.68;;;3.85;;
80322;SDS011;69636;52.372;13.610;2023-09-08T14:33:01;7.55;;;4.03;;
80322;SDS011;69636;52.372;13.610;2023-09-08T14:35:28;6.75;;;3.90;;
80322;SDS011;69636;52.372;13.610;2023-09-08T14:37:56;6.10;;;4.20;;
80322;SDS011;69636;52.372;13.610;2023-09-08T14:40:23;5.15;;;3.85;;
80322;SDS011;69636;52.372;13.610;2023-09-08T14:42:50;7.28;;;3.90;;
80322;SDS011;69636;52.372;13.610;2023-09-08T14:45:43;5.72;;;3.92;;
80322;SDS011;69636;52.372;13.610;2023-09-08T14:48:35;6.40;;;3.80;;
80322;SDS011;69636;52.372;13.610;2023-09-08T14:51:06;5.15;;;3.53;;
80322;SDS011;69636;52.372;13.610;2023-09-08T14:53:33;5.72;;;3.58;;
80322;SDS011;69636;52.372;13.610;2023-09-08T14:56:01;5.25;;;3.92;;
80322;SDS011;69636;52.372;13.610;2023-09-08T14:58:28;5.85;;;3.47;;
80322;SDS011;69636;52.372;13.610;2023-09-08T15:00:57;6.97;;;3.75;;
80322;SDS011;69636;52.372;13.610;2023-09-08T15:03:25;5.97;;;3.83;;
80322;SDS011;69636;52.372;13.610;2023-09-08T15:05:52;5.35;;;3.50;;
80322;SDS011;69636;52.372;13.610;2023-09-08T15:08:20;6.22;;;3.67;;
80322;SDS011;69636;52.372;13.610;2023-09-08T15:10:47;5.20;;;3.90;;
80322;SDS011;69636;52.372;13.610;2023-09-08T15:13:15;6.60;;;3.75;;
80322;SDS011;69636;52.372;13.610;2023-09-08T15:15:42;6.25;;;3.67;;